• Join FlightAware (Why Join?)
  • Login
  • US Flag 
03:39AM EDT


 

Airport Tracker/Info


-or-


 

Live Flight TrackerFlight Track Log ✈ ASH3751 ✈ 11-Sep-2013 ✈ KSRQ - KORD

Flight Track Log - Related Links

Times and Time Zones

All times are in EDT time to prevent confusion due to time zone crossing. See the ASH3751 flight status page for this flight to view local times or setup timezone preferences in your user account.

Time Position Orientation Groundspeed Altitude Reporting Facility
EDT Latitude Longitude Course Direction KTS MPH feet Rate Location/Type
02:49PM 27.3500 -82.5000 138° Southeast 178 205 3,000  Level Tampa TRACON
02:51PM 27.4183 -82.4922 North 216 249 5,700 1,740 Climbing Miami Center
02:52PM 27.4814 -82.5281 333° Northwest 221 254 7,800 2,100 Climbing Miami Center
02:53PM 27.5528 -82.5736 331° Northwest 254 292 9,900 2,100 Climbing Miami Center
02:54PM 27.6281 -82.6197 332° Northwest 285 328 12,000 1,800 Climbing Miami Center
02:56PM 27.7950 -82.7236 331° Northwest 348 400 15,100 1,560 Climbing Jacksonville Center
02:57PM 27.8892 -82.7775 333° Northwest 360 414 16,600 1,380 Climbing Jacksonville Center
02:58PM 27.9956 -82.7869 356° North 374 430 17,900 1,440 Climbing Jacksonville Center
02:59PM 28.1061 -82.7892 359° North 387 445 19,500 1,020 Climbing Jacksonville Center
03:00PM 28.2208 -82.7867 North 395 455 20,000 660 Climbing Jacksonville Center
03:01PM 28.3419 -82.7864 360° North 413 475 20,900 960 Climbing Jacksonville Center
03:02PM 28.4461 -82.8075 350° North 422 486 22,000 1,320 Climbing Jacksonville Center
03:03PM 28.5653 -82.8336 349° North 422 486 23,600 1,500 Climbing Jacksonville Center
03:04PM 28.6800 -82.8569 350° North 428 493 25,100 1,200 Climbing Jacksonville Center
03:05PM 28.7969 -82.8761 352° North 423 487 26,000 720 Climbing Jacksonville Center
03:06PM 28.9158 -82.8972 351° North 423 487 26,600 600 Climbing Jacksonville Center
03:07PM 29.0369 -82.9281 347° North 434 499 27,300 600 Climbing Jacksonville Center
03:08PM 29.1622 -82.9617 347° North 439 505 27,900 360 Climbing Jacksonville Center
03:09PM 29.2872 -82.9972 346° North 451 519 28,100 780 Climbing Jacksonville Center
03:10PM 29.4083 -83.0403 343° North 451 519 29,500 900 Climbing Jacksonville Center
03:11PM 29.5461 -83.0858 344° North 454 522 30,000 240 Climbing Jacksonville Center
03:12PM 29.6733 -83.1125 350° North 460 529 30,000  Level Jacksonville Center
03:13PM 29.8006 -83.1464 347° North 472 543 30,000  Level Jacksonville Center
03:14PM 29.9281 -83.1803 347° North 472 543 30,000  Level Jacksonville Center
03:15PM 30.0572 -83.2117 348° North 472 543 30,000  Level Jacksonville Center
03:16PM 30.1803 -83.2578 342° North 472 543 30,000  Level Jacksonville Center
03:17PM 30.2992 -83.3208 335° Northwest 466 536 30,000  Level Jacksonville Center
03:18PM 30.4222 -83.3792 338° Northwest 471 542 30,000  Level Jacksonville Center
03:19PM 30.5408 -83.4378 337° Northwest 471 542 30,000  Level Jacksonville Center
03:20PM 30.6617 -83.5036 335° Northwest 471 542 30,000  Level Jacksonville Center
03:21PM 30.7783 -83.5647 336° Northwest 465 535 30,000  Level Jacksonville Center
03:22PM 30.8928 -83.6286 334° Northwest 458 527 30,000  Level Jacksonville Center
03:23PM 31.0072 -83.6875 336° Northwest 453 521 30,000  Level Jacksonville Center
03:24PM 31.1239 -83.7517 335° Northwest 453 521 30,000  Level Jacksonville Center
03:25PM 31.2425 -83.8136 336° Northwest 459 528 30,000  Level Jacksonville Center
03:26PM 31.3611 -83.8731 337° Northwest 459 528 30,000  Level Jacksonville Center
03:28PM 31.6569 -83.9633 345° North 449 517 30,000  Level Atlanta Center
03:29PM 31.7861 -83.9606 North 454 522 30,000  Level Atlanta Center
03:30PM 31.9114 -83.9533 North 454 522 30,000  Level Atlanta Center
03:31PM 32.0408 -83.9531 360° North 454 522 30,000  Level Atlanta Center
03:32PM 32.1639 -83.9506 North 454 522 30,000  Level Atlanta Center
03:33PM 32.2933 -83.9503 360° North 454 522 30,000  Level Atlanta Center
03:34PM 32.4208 -83.9478 North 459 528 30,000  Level Atlanta Center
03:35PM 32.5481 -83.9453 North 459 528 30,000  Level Atlanta Center
03:36PM 32.6525 -83.9450 360° North 459 528 30,000  Level Atlanta Center
03:37PM 32.7922 -83.9425 North 459 528 30,000  Level Atlanta Center
03:38PM 32.9217 -83.9422 360° North 459 528 30,000  Level Atlanta Center
03:39PM 33.0658 -83.9397 North 459 528 30,000  Level Atlanta Center
03:40PM 33.1953 -83.9344 North 459 528 30,000  Level Atlanta Center
03:41PM 33.3267 -83.9319 North 459 528 30,000  Level Atlanta Center
03:42PM 33.4539 -83.9317 360° North 459 528 30,000  Level Atlanta Center
03:43PM 33.5856 -83.9292 North 459 528 30,000  Level Atlanta Center
03:44PM 33.7169 -83.9264 North 459 528 30,000  Level Atlanta Center
03:45PM 33.8464 -83.9236 North 459 528 30,000  Level Atlanta Center
03:46PM 33.9633 -83.9211 North 459 528 30,000  Level Atlanta Center
03:47PM 34.0928 -83.9208 360° North 459 528 30,000  Level Atlanta Center
03:48PM 34.2242 -83.9183 North 464 534 30,000  Level Atlanta Center
03:49PM 34.3536 -83.9156 North 464 534 30,000  Level Atlanta Center
03:50PM 34.4789 -83.9128 North 452 520 30,000  Level Atlanta Center
03:51PM 34.6103 -83.9125 360° North 461 531 30,000  Level Atlanta Center
03:52PM 34.7500 -83.9150 359° North 453 521 30,000  Level Atlanta Center
03:53PM 34.8817 -83.9122 North 453 521 30,000  Level Atlanta Center
03:54PM 35.0108 -83.9094 North 458 527 30,000  Level Atlanta Center
03:55PM 35.1381 -83.9092 360° North 458 527 30,000  Level Atlanta Center
03:56PM 35.2697 -83.9064 North 458 527 30,000  Level Atlanta Center
03:57PM 35.4011 -83.9036 North 458 527 30,000  Level Atlanta Center
03:58PM 35.5325 -83.9008 North 458 527 30,000  Level Atlanta Center
03:59PM 35.6661 -83.8981 North 464 534 30,000  Level Atlanta Center
04:00PM 35.7953 -83.8953 North 464 534 30,000  Level Atlanta Center
04:01PM 35.9247 -83.9003 358° North 464 534 30,000  Level Atlanta Center
04:02PM 36.0542 -83.9181 354° North 458 527 30,000  Level Atlanta Center
04:03PM 36.1814 -83.9383 353° North 458 527 30,000  Level Atlanta Center
04:04PM 36.3106 -83.9564 354° North 463 533 30,000  Level Atlanta Center
04:06PM 36.4867 -83.9794 354° North 464 534 30,000  Level Indianapolis Center
04:07PM 36.5989 -83.9728 North 467 537 30,000  Level Indianapolis Center
04:08PM 36.7533 -83.9533 North 472 543 30,000  Level Indianapolis Center
04:09PM 36.8842 -83.9364 North 471 542 30,000  Level Indianapolis Center
04:10PM 37.0161 -83.9228 North 472 543 30,000  Level Indianapolis Center
04:11PM 37.1497 -83.9003 North 478 550 30,000  Level Indianapolis Center
04:12PM 37.2814 -83.8850 North 474 545 30,000  Level Indianapolis Center
04:13PM 37.4136 -83.8631 North 475 547 30,000  Level Indianapolis Center
04:14PM 37.5678 -83.8381 North 477 549 30,000  Level Indianapolis Center
04:15PM 37.6997 -83.8289 North 472 543 30,000  Level Indianapolis Center
04:16PM 37.8319 -83.8250 North 471 542 30,000  Level Indianapolis Center
04:17PM 37.9661 -83.8122 North 478 550 30,000  Level Indianapolis Center
04:18PM 38.0958 -83.8003 North 467 537 30,000  Level Indianapolis Center
04:19PM 38.2231 -83.8172 354° North 458 527 30,000  Level Indianapolis Center
04:20PM 38.3778 -83.8317 356° North 471 542 30,000  Level Indianapolis Center
04:21PM 38.5106 -83.8456 355° North 478 550 30,000  Level Indianapolis Center
04:22PM 38.6450 -83.8619 355° North 484 557 30,000  Level Indianapolis Center
04:23PM 38.7747 -83.8756 355° North 485 558 30,000  Level Indianapolis Center
04:24PM 38.9097 -83.8903 355° North 486 559 30,000  Level Indianapolis Center
04:25PM 39.0447 -83.9039 356° North 485 558 30,000  Level Indianapolis Center
04:26PM 39.2061 -83.9211 355° North 485 558 30,000  Level Indianapolis Center
04:28PM 39.3392 -83.9381 354° North 481 554 30,000 -240 Level Indianapolis Center
04:29PM 39.4753 -83.9522 355° North 486 559 29,600 -480 Descending Indianapolis Center
04:30PM 39.6122 -83.9683 355° North 490 564 29,100 -300 Descending Indianapolis Center
04:31PM 39.7417 -83.9819 355° North 472 543 29,000 -60 Descending Indianapolis Center
04:32PM 39.8553 -84.0147 348° North 441 507 29,000  Level Indianapolis Center
04:33PM 39.8875 -84.1414 288° West 392 451 29,000  Level Indianapolis Center
04:34PM 39.9208 -84.3050 285° West 401 461 29,000  Level Indianapolis Center
04:35PM 40.0161 -84.3872 327° Northwest 410 472 29,000  Level Indianapolis Center
04:36PM 40.1172 -84.4706 328° Northwest 423 487 29,000 -480 Level Indianapolis Center
04:37PM 40.2092 -84.5683 321° Northwest 431 496 28,100 -540 Descending Indianapolis Center
04:38PM 40.2825 -84.6897 308° West 425 489 28,000 -60 Descending Indianapolis Center
04:39PM 40.3564 -84.8122 308° West 427 491 28,000  Level Indianapolis Center
04:40PM 40.4711 -84.9139 326° Northwest 440 506 28,000  Level Indianapolis Center
04:41PM 40.5811 -84.9725 338° Northwest 433 498 28,000  Level Indianapolis Center
04:42PM 40.6772 -85.0250 337° Northwest 391 450 28,000  Level Indianapolis Center
04:43PM 40.7728 -85.0758 338° Northwest 376 433 28,000  Level Indianapolis Center
04:44PM 40.8919 -85.1389 338° Northwest 383 441 28,000  Level Indianapolis Center
04:45PM 40.9917 -85.1942 337° Northwest 389 448 28,000  Level Indianapolis Center
04:46PM 41.0908 -85.2447 339° North 385 443 28,000  Level Indianapolis Center
04:47PM 41.1875 -85.2967 338° Northwest 378 435 28,000  Level Indianapolis Center
04:48PM 41.2108 -85.4089 285° West 347 399 28,000 -420 Level Indianapolis Center
04:49PM 41.1683 -85.5275 245° Southwest 357 411 27,200 -1,020 Descending Indianapolis Center
04:50PM 41.1358 -85.6733 254° West 352 405 26,000 -960 Descending Indianapolis Center
04:52PM 41.1881 -85.8075 297° West 339 390 25,000 -420 Descending Chicago Center
04:53PM 41.2433 -85.9431 299° West 347 399 25,000 -180 Level Chicago Center
04:54PM 41.2864 -86.0617 296° West 353 406 24,700 -780 Descending Chicago Center
04:55PM 41.3075 -86.1836 283° West 349 402 23,400 -1,020 Descending Chicago Center
04:56PM 41.2786 -86.2942 251° West 326 375 22,600 -1,080 Descending Chicago Center
04:57PM 41.2419 -86.4044 246° West 327 376 21,200 -1,440 Descending Chicago Center
04:58PM 41.2081 -86.5142 248° West 323 372 19,700 -1,080 Descending Chicago Center
04:59PM 41.1861 -86.6433 257° West 300 345 19,000 -420 Descending Chicago Center
05:00PM 41.1753 -86.7336 261° West 265 305 18,900 -780 Descending Chicago Center
05:01PM 41.2039 -86.8228 293° West 263 303 17,400 -1,680 Descending Chicago Center
05:02PM 41.2317 -86.9106 293° West 261 300 15,500 -1,980 Descending Chicago Center
05:03PM 41.2681 -87.0067 297° West 253 291 13,300 -1,740 Descending Chicago Center
05:04PM 41.3361 -87.0339 343° North 263 303 12,000 -660 Descending Chicago Center
05:05PM 41.4011 -87.0547 346° North 246 283 12,000  Level Chicago Center
05:06PM 41.4703 -87.0819 344° North 257 296 12,000 -300 Level Chicago Center
05:07PM 41.5092 -87.1506 307° West 238 274 11,400 -480 Descending Chicago Center
05:08PM 41.5903 -87.1661 352° North 248 285 11,000 -540 Descending Chicago Center
05:09PM 41.6575 -87.1911 344° North 253 291 10,400 -780 Descending Chicago Center
05:10PM 41.7181 -87.2294 335° Northwest 252 290 9,500 -1,020 Descending Chicago Center
05:11PM 41.7697 -87.2550 340° North 232 267 8,300 -1,560 Descending Chicago Center
05:12PM 41.8386 -87.2469 North 248 285 6,300 -1,740 Descending Chicago Center
05:13PM 41.9097 -87.2683 347° North 216 249 4,800 -1,140 Descending Chicago Center
05:14PM 41.9419 -87.3094 317° Northwest 195 224 4,000 -420 Descending Chicago Center
05:15PM 41.9425 -87.3750 271° West 179 206 4,000  Level Chicago Center
05:16PM 41.9425 -87.4386 270° West 173 199 4,000  Level Chicago Center
05:18PM 41.9522 -87.5056 281° West 177 204 4,000  Level Chicago Center
05:19PM 41.9658 -87.5842 283° West 181 208 4,000  Level Chicago Center
05:20PM 41.9708 -87.6486 276° West 179 206 4,000 -480 Level Chicago Center
05:21PM 41.9689 -87.7136 268° West 178 205 3,100 -900 Descending Chicago Center
05:22PM 41.9689 -87.7794 270° West 177 204 2,200 -960 Descending Chicago Center
05:23PM 41.9667 -87.8667 268° West 150 173 1,100 -960 Descending Chicago TRACON
05:25PM 41.9667 -87.9000 304° West  Level FlightAware Approximate